sensor_id;sensor_type;location;lat;lon;timestamp;P1;durP1;ratioP1;P2;durP2;ratioP2
61572;SDS011;47465;43.094;12.434;2023-02-01T00:01:43;26.02;;;14.95;;
61572;SDS011;47465;43.094;12.434;2023-02-01T00:04:09;24.10;;;14.20;;
61572;SDS011;47465;43.094;12.434;2023-02-01T00:06:36;27.15;;;15.40;;
61572;SDS011;47465;43.094;12.434;2023-02-01T00:09:02;24.20;;;15.10;;
61572;SDS011;47465;43.094;12.434;2023-02-01T00:11:29;24.48;;;14.45;;
61572;SDS011;47465;43.094;12.434;2023-02-01T00:13:55;24.85;;;15.55;;
61572;SDS011;47465;43.094;12.434;2023-02-01T00:16:22;22.02;;;13.68;;
61572;SDS011;47465;43.094;12.434;2023-02-01T00:18:49;21.25;;;13.95;;
61572;SDS011;47465;43.094;12.434;2023-02-01T00:21:17;21.38;;;13.43;;
61572;SDS011;47465;43.094;12.434;2023-02-01T00:23:46;23.30;;;14.40;;
61572;SDS011;47465;43.094;12.434;2023-02-01T00:26:17;24.73;;;14.02;;
61572;SDS011;47465;43.094;12.434;2023-02-01T00:28:44;21.05;;;13.88;;
61572;SDS011;47465;43.094;12.434;2023-02-01T00:31:10;24.60;;;14.50;;
61572;SDS011;47465;43.094;12.434;2023-02-01T00:33:36;21.73;;;14.25;;
61572;SDS011;47465;43.094;12.434;2023-02-01T00:36:03;20.35;;;13.40;;
61572;SDS011;47465;43.094;12.434;2023-02-01T00:38:31;24.83;;;14.73;;
61572;SDS011;47465;43.094;12.434;2023-02-01T00:41:03;21.25;;;14.88;;
61572;SDS011;47465;43.094;12.434;2023-02-01T00:43:30;23.92;;;14.55;;
61572;SDS011;47465;43.094;12.434;2023-02-01T00:45:56;22.58;;;15.07;;
61572;SDS011;47465;43.094;12.434;2023-02-01T00:48:22;25.08;;;15.20;;
61572;SDS011;47465;43.094;12.434;2023-02-01T00:50:48;24.60;;;15.27;;
61572;SDS011;47465;43.094;12.434;2023-02-01T00:53:14;25.27;;;14.93;;
61572;SDS011;47465;43.094;12.434;2023-02-01T00:55:40;24.27;;;14.55;;
61572;SDS011;47465;43.094;12.434;2023-02-01T01:00:37;24.15;;;13.57;;
61572;SDS011;47465;43.094;12.434;2023-02-01T01:03:03;23.42;;;14.50;;
61572;SDS011;47465;43.094;12.434;2023-02-01T01:05:42;26.90;;;15.18;;
61572;SDS011;47465;43.094;12.434;2023-02-01T01:08:08;30.30;;;17.48;;
61572;SDS011;47465;43.094;12.434;2023-02-01T01:10:34;31.88;;;18.60;;
61572;SDS011;47465;43.094;12.434;2023-02-01T01:13:00;28.02;;;16.25;;
61572;SDS011;47465;43.094;12.434;2023-02-01T01:15:27;27.60;;;16.52;;
61572;SDS011;47465;43.094;12.434;2023-02-01T01:17:53;25.90;;;16.40;;
61572;SDS011;47465;43.094;12.434;2023-02-01T01:20:19;25.92;;;16.88;;
61572;SDS011;47465;43.094;12.434;2023-02-01T01:22:46;29.92;;;17.10;;
61572;SDS011;47465;43.094;12.434;2023-02-01T01:25:12;24.17;;;15.65;;
61572;SDS011;47465;43.094;12.434;2023-02-01T01:27:41;26.52;;;16.92;;
61572;SDS011;47465;43.094;12.434;2023-02-01T01:30:08;28.15;;;15.75;;
61572;SDS011;47465;43.094;12.434;2023-02-01T01:32:36;24.92;;;15.25;;
61572;SDS011;47465;43.094;12.434;2023-02-01T01:35:02;25.80;;;15.60;;
61572;SDS011;47465;43.094;12.434;2023-02-01T01:37:28;26.83;;;15.43;;
61572;SDS011;47465;43.094;12.434;2023-02-01T01:39:54;24.33;;;15.70;;
61572;SDS011;47465;43.094;12.434;2023-02-01T01:42:20;26.60;;;15.88;;
61572;SDS011;47465;43.094;12.434;2023-02-01T01:44:59;26.30;;;16.30;;
61572;SDS011;47465;43.094;12.434;2023-02-01T01:47:30;26.88;;;16.40;;
61572;SDS011;47465;43.094;12.434;2023-02-01T01:50:07;27.98;;;17.48;;
61572;SDS011;47465;43.094;12.434;2023-02-01T01:52:38;31.13;;;18.47;;
61572;SDS011;47465;43.094;12.434;2023-02-01T01:55:06;24.52;;;16.23;;
61572;SDS011;47465;43.094;12.434;2023-02-01T01:57:33;26.90;;;16.02;;
61572;SDS011;47465;43.094;12.434;2023-02-01T02:00:07;24.52;;;15.63;;
61572;SDS011;47465;43.094;12.434;2023-02-01T02:02:34;26.77;;;16.58;;
61572;SDS011;47465;43.094;12.434;2023-02-01T02:05:04;26.45;;;15.35;;
61572;SDS011;47465;43.094;12.434;2023-02-01T02:07:32;25.83;;;15.73;;
61572;SDS011;47465;43.094;12.434;2023-02-01T02:10:01;26.92;;;16.52;;
61572;SDS011;47465;43.094;12.434;2023-02-01T02:12:31;24.83;;;16.63;;
61572;SDS011;47465;43.094;12.434;2023-02-01T02:14:57;24.27;;;15.48;;
61572;SDS011;47465;43.094;12.434;2023-02-01T02:17:28;27.15;;;15.73;;
61572;SDS011;47465;43.094;12.434;2023-02-01T02:31:48;32.78;;;18.80;;
61572;SDS011;47465;43.094;12.434;2023-02-01T02:34:24;29.05;;;17.33;;
61572;SDS011;47465;43.094;12.434;2023-02-01T02:36:55;26.52;;;17.35;;
61572;SDS011;47465;43.094;12.434;2023-02-01T02:39:32;31.42;;;18.30;;
61572;SDS011;47465;43.094;12.434;2023-02-01T02:42:06;28.63;;;18.27;;
61572;SDS011;47465;43.094;12.434;2023-02-01T02:45:14;27.65;;;18.20;;
61572;SDS011;47465;43.094;12.434;2023-02-01T02:48:19;29.02;;;18.98;;
61572;SDS011;47465;43.094;12.434;2023-02-01T02:50:50;29.83;;;19.77;;
61572;SDS011;47465;43.094;12.434;2023-02-01T02:53:58;30.35;;;18.90;;
61572;SDS011;47465;43.094;12.434;2023-02-01T02:57:02;33.50;;;19.75;;
61572;SDS011;47465;43.094;12.434;2023-02-01T03:00:07;36.95;;;21.30;;
61572;SDS011;47465;43.094;12.434;2023-02-01T03:03:11;32.85;;;18.92;;
61572;SDS011;47465;43.094;12.434;2023-02-01T03:06:13;33.35;;;18.75;;
61572;SDS011;47465;43.094;12.434;2023-02-01T03:08:41;36.72;;;20.65;;
61572;SDS011;47465;43.094;12.434;2023-02-01T03:11:11;30.20;;;18.52;;
61572;SDS011;47465;43.094;12.434;2023-02-01T03:13:41;30.63;;;19.83;;
61572;SDS011;47465;43.094;12.434;2023-02-01T03:16:12;29.13;;;16.70;;
61572;SDS011;47465;43.094;12.434;2023-02-01T03:18:45;28.13;;;16.95;;
61572;SDS011;47465;43.094;12.434;2023-02-01T03:21:18;27.48;;;16.77;;
61572;SDS011;47465;43.094;12.434;2023-02-01T03:23:46;27.42;;;16.83;;
61572;SDS011;47465;43.094;12.434;2023-02-01T03:26:14;28.17;;;16.30;;
61572;SDS011;47465;43.094;12.434;2023-02-01T03:28:45;26.73;;;16.50;;
61572;SDS011;47465;43.094;12.434;2023-02-01T03:31:17;26.45;;;17.50;;
61572;SDS011;47465;43.094;12.434;2023-02-01T03:33:43;29.92;;;17.77;;
61572;SDS011;47465;43.094;12.434;2023-02-01T03:36:12;28.73;;;16.67;;
61572;SDS011;47465;43.094;12.434;2023-02-01T03:38:46;26.98;;;16.25;;
61572;SDS011;47465;43.094;12.434;2023-02-01T03:41:17;26.77;;;15.88;;
61572;SDS011;47465;43.094;12.434;2023-02-01T03:43:50;26.77;;;17.17;;
61572;SDS011;47465;43.094;12.434;2023-02-01T03:46:24;27.10;;;16.70;;
61572;SDS011;47465;43.094;12.434;2023-02-01T03:48:57;25.20;;;15.43;;
61572;SDS011;47465;43.094;12.434;2023-02-01T03:51:26;27.43;;;15.20;;
61572;SDS011;47465;43.094;12.434;2023-02-01T03:53:53;23.80;;;14.20;;
61572;SDS011;47465;43.094;12.434;2023-02-01T03:56:21;22.47;;;14.27;;
61572;SDS011;47465;43.094;12.434;2023-02-01T03:58:49;24.33;;;13.63;;
61572;SDS011;47465;43.094;12.434;2023-02-01T04:01:24;21.05;;;13.55;;
61572;SDS011;47465;43.094;12.434;2023-02-01T04:03:51;22.30;;;13.90;;
61572;SDS011;47465;43.094;12.434;2023-02-01T04:06:17;20.48;;;12.68;;
61572;SDS011;47465;43.094;12.434;2023-02-01T04:08:43;28.17;;;16.83;;
61572;SDS011;47465;43.094;12.434;2023-02-01T04:11:10;26.13;;;15.57;;
61572;SDS011;47465;43.094;12.434;2023-02-01T04:13:36;26.33;;;14.93;;
61572;SDS011;47465;43.094;12.434;2023-02-01T04:16:02;21.55;;;12.65;;
61572;SDS011;47465;43.094;12.434;2023-02-01T04:18:28;24.48;;;14.07;;
61572;SDS011;47465;43.094;12.434;2023-02-01T04:20:54;22.13;;;12.82;;
61572;SDS011;47465;43.094;12.434;2023-02-01T04:23:20;25.38;;;13.43;;
61572;SDS011;47465;43.094;12.434;2023-02-01T04:25:46;22.38;;;13.95;;
61572;SDS011;47465;43.094;12.434;2023-02-01T04:28:13;23.95;;;14.40;;
61572;SDS011;47465;43.094;12.434;2023-02-01T04:30:39;22.73;;;13.23;;
61572;SDS011;47465;43.094;12.434;2023-02-01T04:33:05;24.15;;;14.13;;
61572;SDS011;47465;43.094;12.434;2023-02-01T04:35:30;20.17;;;13.30;;
61572;SDS011;47465;43.094;12.434;2023-02-01T04:37:56;21.67;;;12.73;;
61572;SDS011;47465;43.094;12.434;2023-02-01T04:40:22;23.70;;;12.93;;
61572;SDS011;47465;43.094;12.434;2023-02-01T04:42:48;20.65;;;12.15;;
61572;SDS011;47465;43.094;12.434;2023-02-01T04:45:16;23.00;;;13.45;;
61572;SDS011;47465;43.094;12.434;2023-02-01T04:47:42;24.25;;;13.95;;
61572;SDS011;47465;43.094;12.434;2023-02-01T04:50:08;23.23;;;13.30;;
61572;SDS011;47465;43.094;12.434;2023-02-01T04:52:35;24.73;;;14.32;;
61572;SDS011;47465;43.094;12.434;2023-02-01T04:55:01;21.63;;;13.07;;
61572;SDS011;47465;43.094;12.434;2023-02-01T04:57:28;25.73;;;13.27;;
61572;SDS011;47465;43.094;12.434;2023-02-01T04:59:54;25.67;;;13.50;;
61572;SDS011;47465;43.094;12.434;2023-02-01T05:02:21;21.38;;;13.02;;
61572;SDS011;47465;43.094;12.434;2023-02-01T05:04:47;22.20;;;13.25;;
61572;SDS011;47465;43.094;12.434;2023-02-01T05:07:13;22.20;;;13.23;;
61572;SDS011;47465;43.094;12.434;2023-02-01T05:09:39;22.65;;;14.27;;
61572;SDS011;47465;43.094;12.434;2023-02-01T05:12:05;21.50;;;13.75;;
61572;SDS011;47465;43.094;12.434;2023-02-01T05:15:06;22.88;;;12.68;;
61572;SDS011;47465;43.094;12.434;2023-02-01T05:17:32;23.13;;;13.63;;
61572;SDS011;47465;43.094;12.434;2023-02-01T05:19:58;25.90;;;13.90;;
61572;SDS011;47465;43.094;12.434;2023-02-01T05:22:24;23.30;;;14.15;;
61572;SDS011;47465;43.094;12.434;2023-02-01T05:24:49;24.20;;;14.05;;
61572;SDS011;47465;43.094;12.434;2023-02-01T05:27:15;21.83;;;12.85;;
61572;SDS011;47465;43.094;12.434;2023-02-01T05:29:41;24.95;;;13.90;;
61572;SDS011;47465;43.094;12.434;2023-02-01T05:32:09;23.30;;;14.32;;
61572;SDS011;47465;43.094;12.434;2023-02-01T05:34:36;25.67;;;15.25;;
61572;SDS011;47465;43.094;12.434;2023-02-01T05:37:02;24.10;;;14.07;;
61572;SDS011;47465;43.094;12.434;2023-02-01T05:39:28;21.60;;;13.82;;
61572;SDS011;47465;43.094;12.434;2023-02-01T05:41:53;26.08;;;14.80;;
61572;SDS011;47465;43.094;12.434;2023-02-01T05:44:19;24.63;;;14.63;;
61572;SDS011;47465;43.094;12.434;2023-02-01T05:46:45;23.80;;;14.10;;
61572;SDS011;47465;43.094;12.434;2023-02-01T05:49:13;25.08;;;15.05;;
61572;SDS011;47465;43.094;12.434;2023-02-01T05:51:38;26.70;;;15.68;;
61572;SDS011;47465;43.094;12.434;2023-02-01T05:54:04;29.75;;;16.65;;
61572;SDS011;47465;43.094;12.434;2023-02-01T05:56:30;27.95;;;16.58;;
61572;SDS011;47465;43.094;12.434;2023-02-01T05:58:56;29.17;;;17.20;;
61572;SDS011;47465;43.094;12.434;2023-02-01T06:01:22;28.27;;;16.73;;
61572;SDS011;47465;43.094;12.434;2023-02-01T06:03:47;32.45;;;17.40;;
61572;SDS011;47465;43.094;12.434;2023-02-01T06:06:15;26.85;;;15.90;;
61572;SDS011;47465;43.094;12.434;2023-02-01T06:08:41;28.80;;;15.70;;
61572;SDS011;47465;43.094;12.434;2023-02-01T06:11:07;28.77;;;16.45;;
61572;SDS011;47465;43.094;12.434;2023-02-01T06:13:33;28.60;;;15.57;;
61572;SDS011;47465;43.094;12.434;2023-02-01T06:16:00;28.17;;;17.00;;
61572;SDS011;47465;43.094;12.434;2023-02-01T06:18:27;29.52;;;16.65;;
61572;SDS011;47465;43.094;12.434;2023-02-01T06:20:55;25.55;;;16.27;;
61572;SDS011;47465;43.094;12.434;2023-02-01T06:23:24;31.60;;;17.40;;
61572;SDS011;47465;43.094;12.434;2023-02-01T06:25:51;32.08;;;18.05;;
61572;SDS011;47465;43.094;12.434;2023-02-01T06:28:17;30.67;;;18.15;;
61572;SDS011;47465;43.094;12.434;2023-02-01T06:30:43;30.48;;;17.50;;
61572;SDS011;47465;43.094;12.434;2023-02-01T06:33:11;31.88;;;16.75;;
61572;SDS011;47465;43.094;12.434;2023-02-01T06:35:37;27.83;;;16.70;;
61572;SDS011;47465;43.094;12.434;2023-02-01T06:38:03;27.45;;;16.90;;
61572;SDS011;47465;43.094;12.434;2023-02-01T06:40:30;26.08;;;16.08;;
61572;SDS011;47465;43.094;12.434;2023-02-01T06:42:56;25.00;;;16.40;;
61572;SDS011;47465;43.094;12.434;2023-02-01T06:45:23;25.25;;;15.63;;
61572;SDS011;47465;43.094;12.434;2023-02-01T06:47:49;28.75;;;17.75;;
61572;SDS011;47465;43.094;12.434;2023-02-01T06:50:15;29.30;;;16.38;;
61572;SDS011;47465;43.094;12.434;2023-02-01T06:52:41;25.35;;;15.48;;
61572;SDS011;47465;43.094;12.434;2023-02-01T06:55:07;29.60;;;16.92;;
61572;SDS011;47465;43.094;12.434;2023-02-01T06:57:35;27.77;;;16.95;;
61572;SDS011;47465;43.094;12.434;2023-02-01T07:00:01;30.33;;;18.05;;
61572;SDS011;47465;43.094;12.434;2023-02-01T07:02:28;26.35;;;16.17;;
61572;SDS011;47465;43.094;12.434;2023-02-01T07:04:54;28.77;;;16.70;;
61572;SDS011;47465;43.094;12.434;2023-02-01T07:07:20;27.13;;;15.75;;
61572;SDS011;47465;43.094;12.434;2023-02-01T07:09:47;34.90;;;20.65;;
61572;SDS011;47465;43.094;12.434;2023-02-01T07:12:13;40.38;;;22.45;;
61572;SDS011;47465;43.094;12.434;2023-02-01T07:14:41;36.67;;;20.05;;
61572;SDS011;47465;43.094;12.434;2023-02-01T07:17:07;44.92;;;24.40;;
61572;SDS011;47465;43.094;12.434;2023-02-01T07:19:32;40.70;;;22.25;;
61572;SDS011;47465;43.094;12.434;2023-02-01T07:21:58;39.05;;;22.65;;
61572;SDS011;47465;43.094;12.434;2023-02-01T07:24:24;42.53;;;22.17;;
61572;SDS011;47465;43.094;12.434;2023-02-01T07:26:50;35.58;;;21.63;;
61572;SDS011;47465;43.094;12.434;2023-02-01T07:29:16;39.38;;;21.17;;
61572;SDS011;47465;43.094;12.434;2023-02-01T07:31:44;38.78;;;19.75;;
61572;SDS011;47465;43.094;12.434;2023-02-01T07:34:09;32.58;;;19.35;;
61572;SDS011;47465;43.094;12.434;2023-02-01T07:36:35;36.03;;;18.73;;
61572;SDS011;47465;43.094;12.434;2023-02-01T07:39:01;31.70;;;17.73;;
61572;SDS011;47465;43.094;12.434;2023-02-01T07:41:28;33.42;;;17.88;;
61572;SDS011;47465;43.094;12.434;2023-02-01T07:43:54;33.28;;;17.15;;
61572;SDS011;47465;43.094;12.434;2023-02-01T07:46:20;24.77;;;15.40;;
61572;SDS011;47465;43.094;12.434;2023-02-01T07:48:47;27.20;;;16.27;;
61572;SDS011;47465;43.094;12.434;2023-02-01T07:51:14;29.92;;;16.80;;
61572;SDS011;47465;43.094;12.434;2023-02-01T07:53:41;31.75;;;17.73;;
61572;SDS011;47465;43.094;12.434;2023-02-01T07:56:10;34.10;;;19.60;;
61572;SDS011;47465;43.094;12.434;2023-02-01T07:58:37;29.60;;;19.27;;
61572;SDS011;47465;43.094;12.434;2023-02-01T08:01:03;32.33;;;19.45;;
61572;SDS011;47465;43.094;12.434;2023-02-01T08:04:03;38.03;;;22.98;;
61572;SDS011;47465;43.094;12.434;2023-02-01T08:06:30;35.70;;;22.05;;
61572;SDS011;47465;43.094;12.434;2023-02-01T08:08:58;29.70;;;18.65;;
61572;SDS011;47465;43.094;12.434;2023-02-01T08:11:24;28.05;;;16.60;;
61572;SDS011;47465;43.094;12.434;2023-02-01T08:13:51;29.30;;;16.67;;
61572;SDS011;47465;43.094;12.434;2023-02-01T08:16:18;25.65;;;16.08;;
61572;SDS011;47465;43.094;12.434;2023-02-01T08:18:45;24.58;;;15.90;;
61572;SDS011;47465;43.094;12.434;2023-02-01T08:21:13;31.73;;;17.48;;
61572;SDS011;47465;43.094;12.434;2023-02-01T08:23:41;28.17;;;15.55;;
61572;SDS011;47465;43.094;12.434;2023-02-01T08:26:08;28.88;;;17.60;;
61572;SDS011;47465;43.094;12.434;2023-02-01T08:28:36;25.17;;;16.58;;
61572;SDS011;47465;43.094;12.434;2023-02-01T08:31:06;27.67;;;16.90;;
61572;SDS011;47465;43.094;12.434;2023-02-01T08:33:33;26.88;;;16.65;;
61572;SDS011;47465;43.094;12.434;2023-02-01T08:36:00;22.92;;;15.48;;
61572;SDS011;47465;43.094;12.434;2023-02-01T08:38:28;28.13;;;16.65;;
61572;SDS011;47465;43.094;12.434;2023-02-01T08:40:54;32.20;;;17.80;;
61572;SDS011;47465;43.094;12.434;2023-02-01T08:43:20;42.15;;;23.23;;
61572;SDS011;47465;43.094;12.434;2023-02-01T08:45:46;39.65;;;21.65;;
61572;SDS011;47465;43.094;12.434;2023-02-01T08:48:12;30.73;;;18.33;;
61572;SDS011;47465;43.094;12.434;2023-02-01T08:50:38;36.42;;;20.38;;
61572;SDS011;47465;43.094;12.434;2023-02-01T08:53:03;45.28;;;23.98;;
61572;SDS011;47465;43.094;12.434;2023-02-01T08:55:31;41.47;;;21.25;;
61572;SDS011;47465;43.094;12.434;2023-02-01T08:57:57;37.22;;;19.98;;
61572;SDS011;47465;43.094;12.434;2023-02-01T09:00:23;34.17;;;20.20;;
61572;SDS011;47465;43.094;12.434;2023-02-01T09:02:49;30.73;;;18.33;;
61572;SDS011;47465;43.094;12.434;2023-02-01T09:05:14;29.95;;;16.75;;
61572;SDS011;47465;43.094;12.434;2023-02-01T09:07:43;25.73;;;15.33;;
61572;SDS011;47465;43.094;12.434;2023-02-01T09:10:09;25.95;;;15.32;;
61572;SDS011;47465;43.094;12.434;2023-02-01T09:12:37;24.88;;;16.10;;
61572;SDS011;47465;43.094;12.434;2023-02-01T09:15:03;25.30;;;16.50;;
61572;SDS011;47465;43.094;12.434;2023-02-01T09:17:32;27.38;;;16.92;;
61572;SDS011;47465;43.094;12.434;2023-02-01T09:19:58;34.30;;;19.40;;
61572;SDS011;47465;43.094;12.434;2023-02-01T09:22:24;37.35;;;20.90;;
61572;SDS011;47465;43.094;12.434;2023-02-01T09:24:52;37.40;;;21.27;;
61572;SDS011;47465;43.094;12.434;2023-02-01T09:27:18;29.67;;;19.97;;
61572;SDS011;47465;43.094;12.434;2023-02-01T09:29:46;30.92;;;19.63;;
61572;SDS011;47465;43.094;12.434;2023-02-01T09:32:17;32.67;;;19.75;;
61572;SDS011;47465;43.094;12.434;2023-02-01T09:34:44;29.95;;;19.23;;
61572;SDS011;47465;43.094;12.434;2023-02-01T09:37:10;27.75;;;20.13;;
61572;SDS011;47465;43.094;12.434;2023-02-01T09:39:36;31.85;;;18.38;;
61572;SDS011;47465;43.094;12.434;2023-02-01T09:42:08;29.10;;;18.65;;
61572;SDS011;47465;43.094;12.434;2023-02-01T09:44:50;32.60;;;19.38;;
61572;SDS011;47465;43.094;12.434;2023-02-01T09:47:28;28.27;;;19.85;;
61572;SDS011;47465;43.094;12.434;2023-02-01T09:49:55;30.25;;;19.17;;
61572;SDS011;47465;43.094;12.434;2023-02-01T09:52:28;29.13;;;18.00;;
61572;SDS011;47465;43.094;12.434;2023-02-01T09:55:00;28.80;;;17.60;;
61572;SDS011;47465;43.094;12.434;2023-02-01T09:57:33;32.85;;;21.38;;
61572;SDS011;47465;43.094;12.434;2023-02-01T10:00:16;32.95;;;17.90;;
61572;SDS011;47465;43.094;12.434;2023-02-01T10:02:46;28.45;;;17.83;;
61572;SDS011;47465;43.094;12.434;2023-02-01T10:05:12;34.13;;;20.75;;
61572;SDS011;47465;43.094;12.434;2023-02-01T10:07:41;36.13;;;22.48;;
61572;SDS011;47465;43.094;12.434;2023-02-01T10:10:17;31.58;;;20.00;;
61572;SDS011;47465;43.094;12.434;2023-02-01T10:12:53;31.88;;;19.67;;
61572;SDS011;47465;43.094;12.434;2023-02-01T10:15:38;32.50;;;20.38;;
61572;SDS011;47465;43.094;12.434;2023-02-01T10:21:16;30.88;;;21.27;;
61572;SDS011;47465;43.094;12.434;2023-02-01T10:23:54;29.23;;;19.58;;
61572;SDS011;47465;43.094;12.434;2023-02-01T10:26:39;31.38;;;20.08;;
61572;SDS011;47465;43.094;12.434;2023-02-01T10:29:11;32.08;;;21.20;;
61572;SDS011;47465;43.094;12.434;2023-02-01T10:31:44;30.33;;;19.65;;
61572;SDS011;47465;43.094;12.434;2023-02-01T10:34:11;27.65;;;18.58;;
61572;SDS011;47465;43.094;12.434;2023-02-01T10:36:46;34.75;;;18.42;;
61572;SDS011;47465;43.094;12.434;2023-02-01T10:39:17;30.65;;;18.83;;
61572;SDS011;47465;43.094;12.434;2023-02-01T10:41:44;32.30;;;19.65;;
61572;SDS011;47465;43.094;12.434;2023-02-01T10:44:10;27.88;;;16.15;;
61572;SDS011;47465;43.094;12.434;2023-02-01T10:49:08;28.15;;;17.17;;
61572;SDS011;47465;43.094;12.434;2023-02-01T10:51:43;27.27;;;15.93;;
61572;SDS011;47465;43.094;12.434;2023-02-01T10:54:14;27.48;;;16.95;;
61572;SDS011;47465;43.094;12.434;2023-02-01T10:56:43;26.60;;;17.38;;
61572;SDS011;47465;43.094;12.434;2023-02-01T10:59:14;27.23;;;18.83;;
61572;SDS011;47465;43.094;12.434;2023-02-01T11:01:42;31.17;;;20.13;;
61572;SDS011;47465;43.094;12.434;2023-02-01T11:04:13;32.08;;;20.05;;
61572;SDS011;47465;43.094;12.434;2023-02-01T11:06:41;29.02;;;18.42;;
61572;SDS011;47465;43.094;12.434;2023-02-01T11:09:10;34.95;;;21.48;;
61572;SDS011;47465;43.094;12.434;2023-02-01T11:11:52;32.80;;;20.73;;
61572;SDS011;47465;43.094;12.434;2023-02-01T11:14:20;33.55;;;19.60;;
61572;SDS011;47465;43.094;12.434;2023-02-01T11:16:53;26.52;;;15.90;;
61572;SDS011;47465;43.094;12.434;2023-02-01T11:19:22;27.00;;;15.95;;
61572;SDS011;47465;43.094;12.434;2023-02-01T11:21:49;29.55;;;18.08;;
61572;SDS011;47465;43.094;12.434;2023-02-01T11:24:18;27.50;;;18.88;;
61572;SDS011;47465;43.094;12.434;2023-02-01T11:26:47;28.58;;;18.90;;
61572;SDS011;47465;43.094;12.434;2023-02-01T11:29:14;27.35;;;17.40;;
61572;SDS011;47465;43.094;12.434;2023-02-01T11:31:47;25.67;;;16.42;;
61572;SDS011;47465;43.094;12.434;2023-02-01T11:34:16;25.50;;;16.63;;
61572;SDS011;47465;43.094;12.434;2023-02-01T11:36:46;28.85;;;16.75;;
61572;SDS011;47465;43.094;12.434;2023-02-01T11:39:19;27.73;;;17.85;;
61572;SDS011;47465;43.094;12.434;2023-02-01T11:42:00;26.95;;;17.88;;
61572;SDS011;47465;43.094;12.434;2023-02-01T11:44:30;32.05;;;17.58;;
61572;SDS011;47465;43.094;12.434;2023-02-01T11:47:16;30.35;;;18.48;;
61572;SDS011;47465;43.094;12.434;2023-02-01T11:49:45;24.17;;;15.93;;
61572;SDS011;47465;43.094;12.434;2023-02-01T11:52:15;28.05;;;18.10;;
61572;SDS011;47465;43.094;12.434;2023-02-01T11:54:49;26.58;;;17.48;;
61572;SDS011;47465;43.094;12.434;2023-02-01T11:57:31;29.60;;;17.42;;
61572;SDS011;47465;43.094;12.434;2023-02-01T12:00:11;33.40;;;19.20;;
61572;SDS011;47465;43.094;12.434;2023-02-01T12:06:16;30.02;;;18.48;;
61572;SDS011;47465;43.094;12.434;2023-02-01T12:08:58;31.27;;;20.80;;
61572;SDS011;47465;43.094;12.434;2023-02-01T12:11:35;33.75;;;19.15;;
61572;SDS011;47465;43.094;12.434;2023-02-01T12:14:14;30.83;;;19.70;;
61572;SDS011;47465;43.094;12.434;2023-02-01T12:16:53;27.38;;;16.88;;
61572;SDS011;47465;43.094;12.434;2023-02-01T12:19:34;30.00;;;17.95;;
61572;SDS011;47465;43.094;12.434;2023-02-01T12:22:18;31.75;;;18.10;;
61572;SDS011;47465;43.094;12.434;2023-02-01T12:25:01;24.88;;;17.40;;
61572;SDS011;47465;43.094;12.434;2023-02-01T12:30:48;29.05;;;18.77;;
61572;SDS011;47465;43.094;12.434;2023-02-01T12:33:33;28.07;;;18.23;;
61572;SDS011;47465;43.094;12.434;2023-02-01T12:36:12;25.10;;;17.25;;
61572;SDS011;47465;43.094;12.434;2023-02-01T12:47:11;31.60;;;19.45;;
61572;SDS011;47465;43.094;12.434;2023-02-01T12:49:44;30.60;;;17.73;;
61572;SDS011;47465;43.094;12.434;2023-02-01T12:52:16;31.13;;;18.20;;
61572;SDS011;47465;43.094;12.434;2023-02-01T12:54:49;31.95;;;19.27;;
61572;SDS011;47465;43.094;12.434;2023-02-01T12:57:23;39.85;;;20.60;;
61572;SDS011;47465;43.094;12.434;2023-02-01T12:59:54;28.95;;;17.42;;
61572;SDS011;47465;43.094;12.434;2023-02-01T13:02:28;33.45;;;18.88;;
61572;SDS011;47465;43.094;12.434;2023-02-01T13:05:04;31.85;;;18.80;;
61572;SDS011;47465;43.094;12.434;2023-02-01T13:07:39;29.98;;;17.55;;
61572;SDS011;47465;43.094;12.434;2023-02-01T13:10:12;30.38;;;18.15;;
61572;SDS011;47465;43.094;12.434;2023-02-01T13:12:44;28.70;;;17.85;;
61572;SDS011;47465;43.094;12.434;2023-02-01T13:15:19;30.98;;;18.75;;
61572;SDS011;47465;43.094;12.434;2023-02-01T13:17:48;30.08;;;17.83;;
61572;SDS011;47465;43.094;12.434;2023-02-01T13:20:19;27.30;;;18.20;;
61572;SDS011;47465;43.094;12.434;2023-02-01T13:22:50;28.60;;;16.35;;
61572;SDS011;47465;43.094;12.434;2023-02-01T13:25:23;29.58;;;16.88;;
61572;SDS011;47465;43.094;12.434;2023-02-01T13:27:57;26.63;;;15.27;;
61572;SDS011;47465;43.094;12.434;2023-02-01T13:30:30;26.75;;;16.40;;
61572;SDS011;47465;43.094;12.434;2023-02-01T13:33:11;25.85;;;17.10;;
61572;SDS011;47465;43.094;12.434;2023-02-01T13:38:51;27.83;;;17.73;;
61572;SDS011;47465;43.094;12.434;2023-02-01T13:41:41;31.40;;;19.10;;
61572;SDS011;47465;43.094;12.434;2023-02-01T13:46:54;25.55;;;16.60;;
61572;SDS011;47465;43.094;12.434;2023-02-01T13:49:25;29.88;;;16.77;;
61572;SDS011;47465;43.094;12.434;2023-02-01T13:51:53;23.02;;;13.57;;
61572;SDS011;47465;43.094;12.434;2023-02-01T13:54:23;24.02;;;14.93;;
61572;SDS011;47465;43.094;12.434;2023-02-01T13:56:51;22.80;;;14.27;;
61572;SDS011;47465;43.094;12.434;2023-02-01T14:05:02;25.55;;;15.30;;
61572;SDS011;47465;43.094;12.434;2023-02-01T14:07:28;27.92;;;15.00;;
61572;SDS011;47465;43.094;12.434;2023-02-01T14:09:54;33.83;;;19.20;;
61572;SDS011;47465;43.094;12.434;2023-02-01T14:15:21;35.65;;;19.67;;
61572;SDS011;47465;43.094;12.434;2023-02-01T14:17:49;38.42;;;20.85;;
61572;SDS011;47465;43.094;12.434;2023-02-01T14:20:38;37.63;;;22.08;;
61572;SDS011;47465;43.094;12.434;2023-02-01T14:23:08;39.17;;;22.33;;
61572;SDS011;47465;43.094;12.434;2023-02-01T14:25:37;42.30;;;22.63;;
61572;SDS011;47465;43.094;12.434;2023-02-01T14:28:09;44.05;;;22.92;;
61572;SDS011;47465;43.094;12.434;2023-02-01T14:30:38;36.85;;;20.08;;
61572;SDS011;47465;43.094;12.434;2023-02-01T14:33:17;31.50;;;16.75;;
61572;SDS011;47465;43.094;12.434;2023-02-01T14:35:54;30.38;;;16.95;;
61572;SDS011;47465;43.094;12.434;2023-02-01T14:38:27;42.78;;;21.98;;
61572;SDS011;47465;43.094;12.434;2023-02-01T14:41:09;55.08;;;30.73;;
61572;SDS011;47465;43.094;12.434;2023-02-01T14:43:51;57.55;;;34.80;;
61572;SDS011;47465;43.094;12.434;2023-02-01T14:49:59;42.30;;;25.67;;
61572;SDS011;47465;43.094;12.434;2023-02-01T14:52:43;47.22;;;27.58;;
61572;SDS011;47465;43.094;12.434;2023-02-01T14:55:13;38.95;;;25.55;;
61572;SDS011;47465;43.094;12.434;2023-02-01T14:57:42;45.75;;;25.77;;
61572;SDS011;47465;43.094;12.434;2023-02-01T15:00:20;36.05;;;19.77;;
61572;SDS011;47465;43.094;12.434;2023-02-01T15:05:28;36.78;;;21.52;;
61572;SDS011;47465;43.094;12.434;2023-02-01T15:07:57;46.38;;;27.38;;
61572;SDS011;47465;43.094;12.434;2023-02-01T15:10:25;44.15;;;26.98;;
61572;SDS011;47465;43.094;12.434;2023-02-01T15:12:53;48.65;;;27.67;;
61572;SDS011;47465;43.094;12.434;2023-02-01T15:15:20;47.90;;;27.92;;
61572;SDS011;47465;43.094;12.434;2023-02-01T15:17:51;46.57;;;26.97;;
61572;SDS011;47465;43.094;12.434;2023-02-01T15:20:19;44.58;;;26.45;;
61572;SDS011;47465;43.094;12.434;2023-02-01T15:22:55;38.97;;;24.38;;